sensor_id;sensor_type;location;lat;lon;timestamp;P1;durP1;ratioP1;P2;durP2;ratioP2
43994;SDS011;51687;52.160;5.298;2022-09-01T00:02:28;3.35;;;1.40;;
43994;SDS011;51687;52.160;5.298;2022-09-01T00:04:55;3.47;;;1.67;;
43994;SDS011;51687;52.160;5.298;2022-09-01T00:07:26;2.03;;;1.50;;
43994;SDS011;51687;52.160;5.298;2022-09-01T00:09:57;3.85;;;1.42;;
43994;SDS011;51687;52.160;5.298;2022-09-01T00:12:25;3.42;;;1.40;;
43994;SDS011;51687;52.160;5.298;2022-09-01T00:14:52;4.90;;;1.40;;
43994;SDS011;51687;52.160;5.298;2022-09-01T00:17:19;3.95;;;1.65;;
43994;SDS011;51687;52.160;5.298;2022-09-01T00:19:46;3.35;;;1.45;;
43994;SDS011;51687;52.160;5.298;2022-09-01T00:22:13;2.97;;;1.77;;
43994;SDS011;51687;52.160;5.298;2022-09-01T00:24:40;5.57;;;1.80;;
43994;SDS011;51687;52.160;5.298;2022-09-01T00:27:07;4.20;;;1.50;;
43994;SDS011;51687;52.160;5.298;2022-09-01T00:29:38;4.93;;;1.20;;
43994;SDS011;51687;52.160;5.298;2022-09-01T00:32:09;1.73;;;1.42;;
43994;SDS011;51687;52.160;5.298;2022-09-01T00:34:36;4.78;;;1.33;;
43994;SDS011;51687;52.160;5.298;2022-09-01T00:37:03;2.28;;;1.40;;
43994;SDS011;51687;52.160;5.298;2022-09-01T00:39:30;2.67;;;1.67;;
43994;SDS011;51687;52.160;5.298;2022-09-01T00:41:57;3.13;;;1.33;;
43994;SDS011;51687;52.160;5.298;2022-09-01T00:44:24;1.98;;;1.70;;
43994;SDS011;51687;52.160;5.298;2022-09-01T00:46:56;2.28;;;1.50;;
43994;SDS011;51687;52.160;5.298;2022-09-01T00:52:11;3.33;;;1.40;;
43994;SDS011;51687;52.160;5.298;2022-09-01T00:54:43;3.60;;;1.30;;
43994;SDS011;51687;52.160;5.298;2022-09-01T00:57:12;1.90;;;1.38;;
43994;SDS011;51687;52.160;5.298;2022-09-01T01:00:05;2.50;;;1.45;;
43994;SDS011;51687;52.160;5.298;2022-09-01T01:02:33;5.07;;;1.33;;
43994;SDS011;51687;52.160;5.298;2022-09-01T01:05:01;3.08;;;1.30;;
43994;SDS011;51687;52.160;5.298;2022-09-01T01:07:28;3.47;;;1.60;;
43994;SDS011;51687;52.160;5.298;2022-09-01T01:09:56;3.03;;;1.50;;
43994;SDS011;51687;52.160;5.298;2022-09-01T01:12:23;2.63;;;1.30;;
43994;SDS011;51687;52.160;5.298;2022-09-01T01:14:52;2.85;;;1.55;;
43994;SDS011;51687;52.160;5.298;2022-09-01T01:17:20;2.58;;;1.15;;
43994;SDS011;51687;52.160;5.298;2022-09-01T01:19:51;2.85;;;1.65;;
43994;SDS011;51687;52.160;5.298;2022-09-01T01:22:51;1.50;;;1.30;;
43994;SDS011;51687;52.160;5.298;2022-09-01T01:25:47;2.03;;;1.40;;
43994;SDS011;51687;52.160;5.298;2022-09-01T01:28:26;5.57;;;1.20;;
43994;SDS011;51687;52.160;5.298;2022-09-01T01:31:07;2.63;;;1.63;;
43994;SDS011;51687;52.160;5.298;2022-09-01T01:33:40;2.53;;;1.50;;
43994;SDS011;51687;52.160;5.298;2022-09-01T01:36:12;2.40;;;1.30;;
43994;SDS011;51687;52.160;5.298;2022-09-01T01:38:47;5.60;;;1.70;;
43994;SDS011;51687;52.160;5.298;2022-09-01T01:41:15;3.38;;;1.63;;
43994;SDS011;51687;52.160;5.298;2022-09-01T01:43:45;4.07;;;1.60;;
43994;SDS011;51687;52.160;5.298;2022-09-01T01:48:41;4.05;;;2.25;;
43994;SDS011;51687;52.160;5.298;2022-09-01T01:51:09;3.40;;;1.63;;
43994;SDS011;51687;52.160;5.298;2022-09-01T01:53:37;3.45;;;1.95;;
43994;SDS011;51687;52.160;5.298;2022-09-01T01:56:05;3.58;;;1.58;;
43994;SDS011;51687;52.160;5.298;2022-09-01T01:58:34;2.25;;;1.58;;
43994;SDS011;51687;52.160;5.298;2022-09-01T02:01:01;5.90;;;2.33;;
43994;SDS011;51687;52.160;5.298;2022-09-01T02:03:30;5.55;;;1.67;;
43994;SDS011;51687;52.160;5.298;2022-09-01T02:06:08;4.43;;;1.42;;
43994;SDS011;51687;52.160;5.298;2022-09-01T02:08:37;5.03;;;1.80;;
43994;SDS011;51687;52.160;5.298;2022-09-01T02:11:06;3.50;;;1.60;;
43994;SDS011;51687;52.160;5.298;2022-09-01T02:13:34;3.47;;;1.55;;
43994;SDS011;51687;52.160;5.298;2022-09-01T02:16:02;8.27;;;2.10;;
43994;SDS011;51687;52.160;5.298;2022-09-01T02:18:37;2.65;;;1.58;;
43994;SDS011;51687;52.160;5.298;2022-09-01T02:21:07;2.15;;;1.40;;
43994;SDS011;51687;52.160;5.298;2022-09-01T02:23:43;1.90;;;1.50;;
43994;SDS011;51687;52.160;5.298;2022-09-01T02:26:15;3.47;;;2.03;;
43994;SDS011;51687;52.160;5.298;2022-09-01T02:28:44;3.50;;;1.27;;
43994;SDS011;51687;52.160;5.298;2022-09-01T02:31:20;2.33;;;1.90;;
43994;SDS011;51687;52.160;5.298;2022-09-01T02:33:48;2.35;;;1.70;;
43994;SDS011;51687;52.160;5.298;2022-09-01T02:36:15;2.70;;;1.35;;
43994;SDS011;51687;52.160;5.298;2022-09-01T02:38:44;3.90;;;1.83;;
43994;SDS011;51687;52.160;5.298;2022-09-01T02:41:20;4.50;;;1.60;;
43994;SDS011;51687;52.160;5.298;2022-09-01T02:43:51;2.55;;;1.60;;
43994;SDS011;51687;52.160;5.298;2022-09-01T02:46:19;3.58;;;2.10;;
43994;SDS011;51687;52.160;5.298;2022-09-01T02:48:49;2.33;;;1.70;;
43994;SDS011;51687;52.160;5.298;2022-09-01T02:51:23;3.90;;;1.80;;
43994;SDS011;51687;52.160;5.298;2022-09-01T02:53:51;2.90;;;1.50;;
43994;SDS011;51687;52.160;5.298;2022-09-01T02:56:20;3.35;;;1.60;;
43994;SDS011;51687;52.160;5.298;2022-09-01T02:58:50;3.72;;;1.65;;
43994;SDS011;51687;52.160;5.298;2022-09-01T03:01:19;3.10;;;1.55;;
43994;SDS011;51687;52.160;5.298;2022-09-01T03:03:51;3.30;;;1.77;;
43994;SDS011;51687;52.160;5.298;2022-09-01T03:06:20;2.40;;;1.63;;
43994;SDS011;51687;52.160;5.298;2022-09-01T03:08:50;2.72;;;1.63;;
43994;SDS011;51687;52.160;5.298;2022-09-01T03:11:19;3.60;;;2.00;;
43994;SDS011;51687;52.160;5.298;2022-09-01T03:13:47;2.95;;;1.80;;
43994;SDS011;51687;52.160;5.298;2022-09-01T03:16:13;2.00;;;1.73;;
43994;SDS011;51687;52.160;5.298;2022-09-01T03:18:41;6.53;;;2.40;;
43994;SDS011;51687;52.160;5.298;2022-09-01T03:21:08;3.17;;;1.75;;
43994;SDS011;51687;52.160;5.298;2022-09-01T03:23:40;4.60;;;1.90;;
43994;SDS011;51687;52.160;5.298;2022-09-01T03:26:07;2.97;;;1.63;;
43994;SDS011;51687;52.160;5.298;2022-09-01T03:28:35;3.05;;;1.48;;
43994;SDS011;51687;52.160;5.298;2022-09-01T03:31:02;3.90;;;2.22;;
43994;SDS011;51687;52.160;5.298;2022-09-01T03:33:29;1.73;;;1.58;;
43994;SDS011;51687;52.160;5.298;2022-09-01T03:35:57;4.03;;;1.57;;
43994;SDS011;51687;52.160;5.298;2022-09-01T03:38:25;2.88;;;1.70;;
43994;SDS011;51687;52.160;5.298;2022-09-01T03:40:54;2.25;;;1.75;;
43994;SDS011;51687;52.160;5.298;2022-09-01T03:43:26;2.22;;;1.77;;
43994;SDS011;51687;52.160;5.298;2022-09-01T03:46:01;2.47;;;1.50;;
43994;SDS011;51687;52.160;5.298;2022-09-01T03:48:29;3.33;;;1.98;;
43994;SDS011;51687;52.160;5.298;2022-09-01T03:50:58;2.72;;;1.67;;
43994;SDS011;51687;52.160;5.298;2022-09-01T03:53:29;5.07;;;2.22;;
43994;SDS011;51687;52.160;5.298;2022-09-01T03:55:59;2.42;;;2.00;;
43994;SDS011;51687;52.160;5.298;2022-09-01T03:58:26;2.63;;;1.92;;
43994;SDS011;51687;52.160;5.298;2022-09-01T04:00:54;2.58;;;2.03;;
43994;SDS011;51687;52.160;5.298;2022-09-01T04:03:24;3.25;;;1.98;;
43994;SDS011;51687;52.160;5.298;2022-09-01T04:05:57;2.42;;;1.70;;
43994;SDS011;51687;52.160;5.298;2022-09-01T04:08:25;4.70;;;3.05;;
43994;SDS011;51687;52.160;5.298;2022-09-01T04:11:02;4.03;;;2.65;;
43994;SDS011;51687;52.160;5.298;2022-09-01T04:13:36;2.17;;;1.95;;
43994;SDS011;51687;52.160;5.298;2022-09-01T04:16:06;3.67;;;2.17;;
43994;SDS011;51687;52.160;5.298;2022-09-01T04:19:02;3.45;;;2.05;;
43994;SDS011;51687;52.160;5.298;2022-09-01T04:21:42;4.20;;;2.40;;
43994;SDS011;51687;52.160;5.298;2022-09-01T04:24:10;3.20;;;2.78;;
43994;SDS011;51687;52.160;5.298;2022-09-01T04:26:40;3.45;;;2.40;;
43994;SDS011;51687;52.160;5.298;2022-09-01T04:29:07;3.13;;;2.53;;
43994;SDS011;51687;52.160;5.298;2022-09-01T04:31:37;4.65;;;2.53;;
43994;SDS011;51687;52.160;5.298;2022-09-01T04:36:42;4.50;;;2.10;;
43994;SDS011;51687;52.160;5.298;2022-09-01T04:41:39;4.53;;;2.83;;
43994;SDS011;51687;52.160;5.298;2022-09-01T04:44:07;3.90;;;2.67;;
43994;SDS011;51687;52.160;5.298;2022-09-01T04:46:37;3.33;;;2.58;;
43994;SDS011;51687;52.160;5.298;2022-09-01T04:49:08;3.10;;;2.45;;
43994;SDS011;51687;52.160;5.298;2022-09-01T04:51:42;3.67;;;2.78;;
43994;SDS011;51687;52.160;5.298;2022-09-01T04:54:18;3.15;;;2.78;;
43994;SDS011;51687;52.160;5.298;2022-09-01T04:56:47;3.67;;;2.53;;
43994;SDS011;51687;52.160;5.298;2022-09-01T04:59:17;2.92;;;2.10;;
43994;SDS011;51687;52.160;5.298;2022-09-01T05:01:47;9.05;;;2.42;;
43994;SDS011;51687;52.160;5.298;2022-09-01T05:04:18;7.82;;;2.53;;
43994;SDS011;51687;52.160;5.298;2022-09-01T05:06:48;3.25;;;2.40;;
43994;SDS011;51687;52.160;5.298;2022-09-01T05:09:18;3.65;;;2.58;;
43994;SDS011;51687;52.160;5.298;2022-09-01T05:11:45;3.38;;;2.60;;
43994;SDS011;51687;52.160;5.298;2022-09-01T05:16:44;3.80;;;2.50;;
43994;SDS011;51687;52.160;5.298;2022-09-01T05:19:12;2.70;;;2.00;;
43994;SDS011;51687;52.160;5.298;2022-09-01T05:21:43;6.55;;;2.47;;
43994;SDS011;51687;52.160;5.298;2022-09-01T05:24:14;2.42;;;2.22;;
43994;SDS011;51687;52.160;5.298;2022-09-01T05:26:46;2.58;;;1.85;;
43994;SDS011;51687;52.160;5.298;2022-09-01T05:29:14;3.30;;;2.03;;
43994;SDS011;51687;52.160;5.298;2022-09-01T05:31:43;3.85;;;2.25;;
43994;SDS011;51687;52.160;5.298;2022-09-01T05:34:15;2.83;;;1.77;;
43994;SDS011;51687;52.160;5.298;2022-09-01T05:36:45;2.35;;;2.15;;
43994;SDS011;51687;52.160;5.298;2022-09-01T05:39:15;5.55;;;2.20;;
43994;SDS011;51687;52.160;5.298;2022-09-01T05:41:42;2.92;;;2.03;;
43994;SDS011;51687;52.160;5.298;2022-09-01T05:44:12;2.08;;;1.88;;
43994;SDS011;51687;52.160;5.298;2022-09-01T05:46:40;2.88;;;1.80;;
43994;SDS011;51687;52.160;5.298;2022-09-01T05:49:10;3.63;;;1.40;;
43994;SDS011;51687;52.160;5.298;2022-09-01T05:51:42;3.95;;;1.75;;
43994;SDS011;51687;52.160;5.298;2022-09-01T05:54:17;2.17;;;1.95;;
43994;SDS011;51687;52.160;5.298;2022-09-01T05:56:50;4.22;;;1.60;;
43994;SDS011;51687;52.160;5.298;2022-09-01T05:59:18;3.35;;;2.13;;
43994;SDS011;51687;52.160;5.298;2022-09-01T06:01:51;5.63;;;2.05;;
43994;SDS011;51687;52.160;5.298;2022-09-01T06:06:47;4.53;;;1.60;;
43994;SDS011;51687;52.160;5.298;2022-09-01T06:09:36;5.28;;;1.60;;
43994;SDS011;51687;52.160;5.298;2022-09-01T06:12:05;7.32;;;1.52;;
43994;SDS011;51687;52.160;5.298;2022-09-01T06:14:36;2.92;;;1.40;;
43994;SDS011;51687;52.160;5.298;2022-09-01T06:17:03;3.78;;;1.75;;
43994;SDS011;51687;52.160;5.298;2022-09-01T06:19:31;2.92;;;2.20;;
43994;SDS011;51687;52.160;5.298;2022-09-01T06:22:03;3.30;;;1.75;;
43994;SDS011;51687;52.160;5.298;2022-09-01T06:24:30;3.53;;;1.67;;
43994;SDS011;51687;52.160;5.298;2022-09-01T06:26:56;11.07;;;2.28;;
43994;SDS011;51687;52.160;5.298;2022-09-01T06:29:24;4.38;;;1.60;;
43994;SDS011;51687;52.160;5.298;2022-09-01T06:31:51;3.88;;;1.98;;
43994;SDS011;51687;52.160;5.298;2022-09-01T06:34:18;6.35;;;1.95;;
43994;SDS011;51687;52.160;5.298;2022-09-01T06:36:46;3.90;;;2.00;;
43994;SDS011;51687;52.160;5.298;2022-09-01T06:39:16;5.10;;;1.95;;
43994;SDS011;51687;52.160;5.298;2022-09-01T06:41:47;4.53;;;1.77;;
43994;SDS011;51687;52.160;5.298;2022-09-01T06:44:14;4.22;;;1.85;;
43994;SDS011;51687;52.160;5.298;2022-09-01T06:46:48;5.82;;;1.63;;
43994;SDS011;51687;52.160;5.298;2022-09-01T06:49:17;7.35;;;2.03;;
43994;SDS011;51687;52.160;5.298;2022-09-01T06:51:46;3.80;;;1.80;;
43994;SDS011;51687;52.160;5.298;2022-09-01T06:54:14;3.17;;;1.60;;
43994;SDS011;51687;52.160;5.298;2022-09-01T06:56:46;1.95;;;1.33;;
43994;SDS011;51687;52.160;5.298;2022-09-01T06:59:17;4.30;;;1.70;;
43994;SDS011;51687;52.160;5.298;2022-09-01T07:01:45;2.70;;;1.50;;
43994;SDS011;51687;52.160;5.298;2022-09-01T07:04:14;4.40;;;1.42;;
43994;SDS011;51687;52.160;5.298;2022-09-01T07:06:45;1.52;;;1.10;;
43994;SDS011;51687;52.160;5.298;2022-09-01T07:09:26;2.50;;;1.27;;
43994;SDS011;51687;52.160;5.298;2022-09-01T07:12:14;2.70;;;1.40;;
43994;SDS011;51687;52.160;5.298;2022-09-01T07:14:53;3.20;;;1.45;;
43994;SDS011;51687;52.160;5.298;2022-09-01T07:17:40;5.10;;;1.50;;
43994;SDS011;51687;52.160;5.298;2022-09-01T07:20:08;3.17;;;1.23;;
43994;SDS011;51687;52.160;5.298;2022-09-01T07:22:54;3.90;;;1.10;;
43994;SDS011;51687;52.160;5.298;2022-09-01T07:25:31;1.73;;;1.20;;
43994;SDS011;51687;52.160;5.298;2022-09-01T07:28:24;3.08;;;1.00;;
43994;SDS011;51687;52.160;5.298;2022-09-01T07:33:52;1.75;;;1.00;;
43994;SDS011;51687;52.160;5.298;2022-09-01T07:36:40;4.13;;;1.00;;
43994;SDS011;51687;52.160;5.298;2022-09-01T07:39:30;2.08;;;1.27;;
43994;SDS011;51687;52.160;5.298;2022-09-01T07:42:17;1.92;;;1.20;;
43994;SDS011;51687;52.160;5.298;2022-09-01T07:45:05;3.65;;;1.10;;
43994;SDS011;51687;52.160;5.298;2022-09-01T07:47:53;2.67;;;0.93;;
43994;SDS011;51687;52.160;5.298;2022-09-01T07:50:20;8.52;;;1.20;;
43994;SDS011;51687;52.160;5.298;2022-09-01T07:53:09;5.68;;;1.15;;
43994;SDS011;51687;52.160;5.298;2022-09-01T07:55:44;2.22;;;1.00;;
43994;SDS011;51687;52.160;5.298;2022-09-01T07:58:12;1.92;;;1.20;;
43994;SDS011;51687;52.160;5.298;2022-09-01T08:00:39;4.85;;;1.02;;
43994;SDS011;51687;52.160;5.298;2022-09-01T08:03:08;2.45;;;1.00;;
43994;SDS011;51687;52.160;5.298;2022-09-01T08:05:35;1.60;;;0.80;;
43994;SDS011;51687;52.160;5.298;2022-09-01T08:08:02;1.35;;;0.95;;
43994;SDS011;51687;52.160;5.298;2022-09-01T08:10:43;2.42;;;0.95;;
43994;SDS011;51687;52.160;5.298;2022-09-01T08:13:14;2.47;;;1.02;;
43994;SDS011;51687;52.160;5.298;2022-09-01T08:15:45;2.53;;;0.88;;
43994;SDS011;51687;52.160;5.298;2022-09-01T08:18:32;2.42;;;0.90;;
43994;SDS011;51687;52.160;5.298;2022-09-01T08:21:15;5.18;;;1.17;;
43994;SDS011;51687;52.160;5.298;2022-09-01T08:26:14;3.30;;;0.82;;
43994;SDS011;51687;52.160;5.298;2022-09-01T08:28:43;2.90;;;0.90;;
43994;SDS011;51687;52.160;5.298;2022-09-01T08:31:19;2.35;;;0.80;;
43994;SDS011;51687;52.160;5.298;2022-09-01T08:33:47;4.00;;;0.80;;
43994;SDS011;51687;52.160;5.298;2022-09-01T08:36:15;2.85;;;0.88;;
43994;SDS011;51687;52.160;5.298;2022-09-01T08:38:49;1.13;;;0.90;;
43994;SDS011;51687;52.160;5.298;2022-09-01T08:41:18;1.73;;;0.88;;
43994;SDS011;51687;52.160;5.298;2022-09-01T08:44:02;3.05;;;0.98;;
43994;SDS011;51687;52.160;5.298;2022-09-01T08:46:34;1.80;;;0.60;;
43994;SDS011;51687;52.160;5.298;2022-09-01T08:49:06;2.10;;;0.70;;
43994;SDS011;51687;52.160;5.298;2022-09-01T08:52:01;1.83;;;0.93;;
43994;SDS011;51687;52.160;5.298;2022-09-01T08:54:48;3.97;;;0.73;;
43994;SDS011;51687;52.160;5.298;2022-09-01T08:57:20;2.20;;;0.90;;
43994;SDS011;51687;52.160;5.298;2022-09-01T08:59:54;1.08;;;0.90;;
43994;SDS011;51687;52.160;5.298;2022-09-01T09:10:38;4.00;;;0.70;;
43994;SDS011;51687;52.160;5.298;2022-09-01T09:18:50;1.98;;;0.80;;
43994;SDS011;51687;52.160;5.298;2022-09-01T09:21:50;5.10;;;0.80;;
43994;SDS011;51687;52.160;5.298;2022-09-01T09:24:29;0.88;;;0.50;;
43994;SDS011;51687;52.160;5.298;2022-09-01T09:27:25;2.05;;;0.65;;
43994;SDS011;51687;52.160;5.298;2022-09-01T09:35:42;4.95;;;0.65;;
43994;SDS011;51687;52.160;5.298;2022-09-01T09:51:41;2.42;;;0.45;;
43994;SDS011;51687;52.160;5.298;2022-09-01T09:54:11;1.58;;;1.05;;
43994;SDS011;51687;52.160;5.298;2022-09-01T09:56:44;4.88;;;1.02;;
43994;SDS011;51687;52.160;5.298;2022-09-01T09:59:20;0.93;;;0.50;;
43994;SDS011;51687;52.160;5.298;2022-09-01T10:02:29;2.05;;;0.60;;
43994;SDS011;51687;52.160;5.298;2022-09-01T10:05:21;2.53;;;0.40;;
43994;SDS011;51687;52.160;5.298;2022-09-01T10:08:10;2.75;;;0.57;;
43994;SDS011;51687;52.160;5.298;2022-09-01T10:10:45;2.58;;;0.70;;
43994;SDS011;51687;52.160;5.298;2022-09-01T10:13:24;2.33;;;0.60;;
43994;SDS011;51687;52.160;5.298;2022-09-01T10:15:55;2.45;;;0.70;;
43994;SDS011;51687;52.160;5.298;2022-09-01T10:18:26;1.10;;;0.50;;
43994;SDS011;51687;52.160;5.298;2022-09-01T10:21:08;0.95;;;0.57;;
43994;SDS011;51687;52.160;5.298;2022-09-01T10:23:58;3.13;;;0.60;;
43994;SDS011;51687;52.160;5.298;2022-09-01T10:26:46;2.10;;;1.23;;
43994;SDS011;51687;52.160;5.298;2022-09-01T10:32:00;1.38;;;0.68;;
43994;SDS011;51687;52.160;5.298;2022-09-01T10:34:53;5.65;;;0.68;;
43994;SDS011;51687;52.160;5.298;2022-09-01T10:37:24;2.80;;;0.57;;
43994;SDS011;51687;52.160;5.298;2022-09-01T10:40:09;1.25;;;0.55;;
43994;SDS011;51687;52.160;5.298;2022-09-01T10:42:41;1.27;;;0.57;;
43994;SDS011;51687;52.160;5.298;2022-09-01T10:53:47;2.85;;;0.60;;
43994;SDS011;51687;52.160;5.298;2022-09-01T10:59:10;1.50;;;0.50;;
43994;SDS011;51687;52.160;5.298;2022-09-01T11:02:08;1.20;;;0.52;;
43994;SDS011;51687;52.160;5.298;2022-09-01T11:07:32;2.30;;;0.55;;
43994;SDS011;51687;52.160;5.298;2022-09-01T11:10:29;1.90;;;0.70;;
43994;SDS011;51687;52.160;5.298;2022-09-01T11:16:14;1.15;;;0.60;;
43994;SDS011;51687;52.160;5.298;2022-09-01T11:19:37;1.02;;;0.70;;
43994;SDS011;51687;52.160;5.298;2022-09-01T11:25:05;2.25;;;0.88;;
43994;SDS011;51687;52.160;5.298;2022-09-01T11:33:33;1.00;;;0.50;;
43994;SDS011;51687;52.160;5.298;2022-09-01T11:36:03;0.80;;;0.50;;
43994;SDS011;51687;52.160;5.298;2022-09-01T11:42:02;0.65;;;0.45;;
43994;SDS011;51687;52.160;5.298;2022-09-01T11:44:20;1.08;;;0.45;;
43994;SDS011;51687;52.160;5.298;2022-09-01T11:46:48;1.27;;;0.60;;
43994;SDS011;51687;52.160;5.298;2022-09-01T11:51:58;1.80;;;0.40;;
43994;SDS011;51687;52.160;5.298;2022-09-01T11:54:36;1.83;;;0.50;;
43994;SDS011;51687;52.160;5.298;2022-09-01T11:59:47;0.68;;;0.50;;
43994;SDS011;51687;52.160;5.298;2022-09-01T12:02:18;3.28;;;0.70;;
43994;SDS011;51687;52.160;5.298;2022-09-01T12:04:57;0.63;;;0.40;;
43994;SDS011;51687;52.160;5.298;2022-09-01T12:07:26;4.10;;;0.63;;
43994;SDS011;51687;52.160;5.298;2022-09-01T12:10:00;0.95;;;0.40;;
43994;SDS011;51687;52.160;5.298;2022-09-01T12:12:34;1.08;;;0.60;;
43994;SDS011;51687;52.160;5.298;2022-09-01T12:15:04;1.00;;;0.40;;
43994;SDS011;51687;52.160;5.298;2022-09-01T12:17:32;1.85;;;0.50;;
43994;SDS011;51687;52.160;5.298;2022-09-01T12:25:54;2.35;;;0.40;;
43994;SDS011;51687;52.160;5.298;2022-09-01T12:28:27;1.48;;;0.40;;
43994;SDS011;51687;52.160;5.298;2022-09-01T12:31:01;1.27;;;0.40;;
43994;SDS011;51687;52.160;5.298;2022-09-01T12:33:33;1.13;;;0.45;;
43994;SDS011;51687;52.160;5.298;2022-09-01T12:38:47;4.03;;;0.40;;
43994;SDS011;51687;52.160;5.298;2022-09-01T12:41:34;4.23;;;0.67;;
43994;SDS011;51687;52.160;5.298;2022-09-01T12:46:47;1.50;;;0.57;;
43994;SDS011;51687;52.160;5.298;2022-09-01T12:54:47;0.80;;;0.40;;
43994;SDS011;51687;52.160;5.298;2022-09-01T13:02:37;2.83;;;0.55;;
43994;SDS011;51687;52.160;5.298;2022-09-01T13:08:05;0.70;;;0.40;;
43994;SDS011;51687;52.160;5.298;2022-09-01T13:10:41;1.20;;;0.40;;
43994;SDS011;51687;52.160;5.298;2022-09-01T13:13:13;1.75;;;0.40;;
43994;SDS011;51687;52.160;5.298;2022-09-01T13:15:42;0.82;;;0.40;;
43994;SDS011;51687;52.160;5.298;2022-09-01T13:18:15;5.32;;;0.60;;
43994;SDS011;51687;52.160;5.298;2022-09-01T13:20:45;1.65;;;0.40;;
43994;SDS011;51687;52.160;5.298;2022-09-01T13:23:12;0.47;;;0.40;;
43994;SDS011;51687;52.160;5.298;2022-09-01T13:25:39;3.05;;;0.57;;
43994;SDS011;51687;52.160;5.298;2022-09-01T13:28:09;3.00;;;0.60;;
43994;SDS011;51687;52.160;5.298;2022-09-01T13:30:38;1.23;;;0.50;;
43994;SDS011;51687;52.160;5.298;2022-09-01T13:33:05;2.13;;;0.60;;
43994;SDS011;51687;52.160;5.298;2022-09-01T13:35:48;3.58;;;0.93;;
43994;SDS011;51687;52.160;5.298;2022-09-01T13:38:16;0.90;;;0.47;;
43994;SDS011;51687;52.160;5.298;2022-09-01T13:40:45;2.08;;;0.57;;
43994;SDS011;51687;52.160;5.298;2022-09-01T13:43:15;1.30;;;0.73;;
43994;SDS011;51687;52.160;5.298;2022-09-01T13:45:44;2.17;;;0.65;;
43994;SDS011;51687;52.160;5.298;2022-09-01T13:48:13;1.42;;;0.60;;
43994;SDS011;51687;52.160;5.298;2022-09-01T13:50:43;6.43;;;0.75;;
43994;SDS011;51687;52.160;5.298;2022-09-01T13:53:31;0.65;;;0.50;;
43994;SDS011;51687;52.160;5.298;2022-09-01T13:55:58;1.67;;;0.60;;
43994;SDS011;51687;52.160;5.298;2022-09-01T13:58:25;0.60;;;0.60;;
43994;SDS011;51687;52.160;5.298;2022-09-01T14:00:52;2.03;;;0.60;;
43994;SDS011;51687;52.160;5.298;2022-09-01T14:03:20;1.45;;;0.50;;
43994;SDS011;51687;52.160;5.298;2022-09-01T14:05:49;2.55;;;0.68;;
43994;SDS011;51687;52.160;5.298;2022-09-01T14:08:17;2.90;;;0.60;;
43994;SDS011;51687;52.160;5.298;2022-09-01T14:10:47;3.83;;;1.05;;
43994;SDS011;51687;52.160;5.298;2022-09-01T14:13:16;1.13;;;0.60;;
43994;SDS011;51687;52.160;5.298;2022-09-01T14:15:44;0.73;;;0.50;;
43994;SDS011;51687;52.160;5.298;2022-09-01T14:18:13;5.68;;;0.47;;
43994;SDS011;51687;52.160;5.298;2022-09-01T14:20:42;2.47;;;0.60;;
43994;SDS011;51687;52.160;5.298;2022-09-01T14:23:11;0.95;;;0.68;;
43994;SDS011;51687;52.160;5.298;2022-09-01T14:25:41;1.20;;;0.60;;
43994;SDS011;51687;52.160;5.298;2022-09-01T14:28:10;2.25;;;0.70;;
43994;SDS011;51687;52.160;5.298;2022-09-01T14:30:38;3.17;;;0.32;;
43994;SDS011;51687;52.160;5.298;2022-09-01T14:33:08;0.82;;;0.60;;
43994;SDS011;51687;52.160;5.298;2022-09-01T14:35:39;1.35;;;0.50;;
43994;SDS011;51687;52.160;5.298;2022-09-01T14:38:11;1.45;;;0.50;;
43994;SDS011;51687;52.160;5.298;2022-09-01T14:40:39;1.73;;;0.70;;
43994;SDS011;51687;52.160;5.298;2022-09-01T14:43:07;2.00;;;0.60;;
43994;SDS011;51687;52.160;5.298;2022-09-01T14:45:37;4.15;;;0.70;;
43994;SDS011;51687;52.160;5.298;2022-09-01T14:48:05;1.65;;;0.70;;
43994;SDS011;51687;52.160;5.298;2022-09-01T14:50:37;3.45;;;0.60;;
43994;SDS011;51687;52.160;5.298;2022-09-01T14:53:05;1.83;;;0.63;;
43994;SDS011;51687;52.160;5.298;2022-09-01T14:55:32;1.27;;;0.63;;
43994;SDS011;51687;52.160;5.298;2022-09-01T14:57:59;1.70;;;0.60;;
43994;SDS011;51687;52.160;5.298;2022-09-01T15:00:27;1.40;;;0.83;;
43994;SDS011;51687;52.160;5.298;2022-09-01T15:02:56;4.68;;;0.80;;
43994;SDS011;51687;52.160;5.298;2022-09-01T15:05:23;4.10;;;0.95;;
43994;SDS011;51687;52.160;5.298;2022-09-01T15:07:51;5.15;;;0.60;;
43994;SDS011;51687;52.160;5.298;2022-09-01T15:10:20;1.38;;;0.75;;
43994;SDS011;51687;52.160;5.298;2022-09-01T15:12:51;6.45;;;0.60;;
43994;SDS011;51687;52.160;5.298;2022-09-01T15:15:19;3.88;;;0.73;;
43994;SDS011;51687;52.160;5.298;2022-09-01T15:20:14;1.75;;;0.60;;
43994;SDS011;51687;52.160;5.298;2022-09-01T15:23:00;1.73;;;0.70;;
43994;SDS011;51687;52.160;5.298;2022-09-01T15:25:27;1.85;;;0.52;;
43994;SDS011;51687;52.160;5.298;2022-09-01T15:27:55;1.58;;;0.52;;
43994;SDS011;51687;52.160;5.298;2022-09-01T15:30:22;2.72;;;0.88;;
43994;SDS011;51687;52.160;5.298;2022-09-01T15:32:50;1.45;;;0.60;;
43994;SDS011;51687;52.160;5.298;2022-09-01T15:35:18;4.88;;;0.60;;
43994;SDS011;51687;52.160;5.298;2022-09-01T15:37:46;1.70;;;0.50;;
43994;SDS011;51687;52.160;5.298;2022-09-01T15:40:13;2.03;;;0.80;;
43994;SDS011;51687;52.160;5.298;2022-09-01T15:42:40;2.60;;;0.63;;
43994;SDS011;51687;52.160;5.298;2022-09-01T15:45:10;3.25;;;0.57;;
43994;SDS011;51687;52.160;5.298;2022-09-01T15:47:38;1.42;;;0.70;;
43994;SDS011;51687;52.160;5.298;2022-09-01T15:50:11;3.88;;;0.80;;
43994;SDS011;51687;52.160;5.298;2022-09-01T15:52:57;1.98;;;0.65;;
43994;SDS011;51687;52.160;5.298;2022-09-01T15:55:46;2.50;;;0.60;;
43994;SDS011;51687;52.160;5.298;2022-09-01T15:58:14;2.40;;;0.63;;
43994;SDS011;51687;52.160;5.298;2022-09-01T16:00:43;1.80;;;0.80;;
43994;SDS011;51687;52.160;5.298;2022-09-01T16:03:11;5.57;;;0.60;;
43994;SDS011;51687;52.160;5.298;2022-09-01T16:05:39;1.00;;;0.50;;
43994;SDS011;51687;52.160;5.298;2022-09-01T16:08:06;4.55;;;0.80;;
43994;SDS011;51687;52.160;5.298;2022-09-01T16:10:37;0.98;;;0.60;;
43994;SDS011;51687;52.160;5.298;2022-09-01T16:13:05;1.15;;;0.60;;
43994;SDS011;51687;52.160;5.298;2022-09-01T16:15:32;0.95;;;0.70;;
43994;SDS011;51687;52.160;5.298;2022-09-01T16:18:12;0.80;;;0.40;;
43994;SDS011;51687;52.160;5.298;2022-09-01T16:23:31;1.02;;;0.55;;
43994;SDS011;51687;52.160;5.298;2022-09-01T16:26:00;1.00;;;0.60;;
43994;SDS011;51687;52.160;5.298;2022-09-01T16:28:30;1.35;;;0.52;;
43994;SDS011;51687;52.160;5.298;2022-09-01T16:31:09;2.45;;;0.60;;
43994;SDS011;51687;52.160;5.298;2022-09-01T16:33:37;3.15;;;0.60;;
43994;SDS011;51687;52.160;5.298;2022-09-01T16:38:47;1.33;;;0.70;;
43994;SDS011;51687;52.160;5.298;2022-09-01T16:44:34;3.03;;;0.63;;
43994;SDS011;51687;52.160;5.298;2022-09-01T16:49:56;1.70;;;0.70;;
43994;SDS011;51687;52.160;5.298;2022-09-01T16:53:19;3.70;;;0.70;;
43994;SDS011;51687;52.160;5.298;2022-09-01T16:55:36;1.45;;;0.60;;
43994;SDS011;51687;52.160;5.298;2022-09-01T17:01:01;2.47;;;0.70;;
43994;SDS011;51687;52.160;5.298;2022-09-01T17:03:33;2.50;;;0.63;;
43994;SDS011;51687;52.160;5.298;2022-09-01T17:08:52;0.90;;;0.70;;
43994;SDS011;51687;52.160;5.298;2022-09-01T17:13:49;2.25;;;0.80;;
43994;SDS011;51687;52.160;5.298;2022-09-01T17:16:22;5.40;;;0.88;;
43994;SDS011;51687;52.160;5.298;2022-09-01T17:18:54;3.17;;;0.88;;
43994;SDS011;51687;52.160;5.298;2022-09-01T17:21:25;1.52;;;0.70;;
43994;SDS011;51687;52.160;5.298;2022-09-01T17:23:58;1.15;;;0.65;;
43994;SDS011;51687;52.160;5.298;2022-09-01T17:26:27;7.10;;;0.80;;
43994;SDS011;51687;52.160;5.298;2022-09-01T17:37:06;4.28;;;0.95;;
43994;SDS011;51687;52.160;5.298;2022-09-01T17:39:40;1.20;;;0.68;;
43994;SDS011;51687;52.160;5.298;2022-09-01T17:42:31;0.88;;;0.60;;
43994;SDS011;51687;52.160;5.298;2022-09-01T17:47:35;2.20;;;0.70;;
43994;SDS011;51687;52.160;5.298;2022-09-01T17:52:54;1.13;;;0.70;;